Time,TemperatureF,DewpointF,PressureIn,WindDirection,WindDirectionDegrees,WindSpeedMPH,WindSpeedGustMPH,Humidity,HourlyPrecipIn,Conditions,Clouds,dailyrainin,SoftwareType,DateUTC
2013-08-06 00:09:00,70.0,63.5,29.45,SSE,158,1.8,2.2,80,0.00,,,0.00,WUHU216HW,2013-08-06 05:09:00,
2013-08-06 00:19:00,69.7,63.6,29.45,SSE,158,2.0,2.5,81,0.00,,,0.00,WUHU216HW,2013-08-06 05:19:00,
2013-08-06 00:29:00,69.5,63.4,29.45,SSE,158,1.1,2.7,81,0.00,,,0.00,WUHU216HW,2013-08-06 05:29:00,
2013-08-06 00:39:00,69.3,63.5,29.45,SSE,158,0.7,2.9,82,0.00,,,0.00,WUHU216HW,2013-08-06 05:39:00,
2013-08-06 00:49:00,68.9,63.2,29.45,SE,135,0.9,1.8,82,0.00,,,0.00,WUHU216HW,2013-08-06 05:49:00,
2013-08-06 01:00:00,68.8,63.1,29.45,SE,135,0.4,2.0,82,0.00,,,0.00,WUHU216HW,2013-08-06 06:00:00,
2013-08-06 01:10:00,68.8,63.1,29.45,SE,135,0.9,2.2,82,0.00,,,0.00,WUHU216HW,2013-08-06 06:10:00,
2013-08-06 01:20:00,68.8,63.1,29.46,SSW,203,2.5,2.7,82,0.00,,,0.00,WUHU216HW,2013-08-06 06:20:00,
2013-08-06 01:30:00,68.4,62.7,29.45,SSE,158,0.0,2.5,82,0.00,,,0.00,WUHU216HW,2013-08-06 06:30:00,
2013-08-06 01:40:00,68.4,62.7,29.45,SE,135,1.1,1.1,82,0.00,,,0.00,WUHU216HW,2013-08-06 06:40:00,
2013-08-06 01:50:00,68.2,62.9,29.45,SSW,203,1.1,1.6,83,0.00,,,0.00,WUHU216HW,2013-08-06 06:50:00,
2013-08-06 02:00:00,68.2,62.9,29.45,WSW,248,2.2,2.2,83,0.00,,,0.00,WUHU216HW,2013-08-06 07:00:00,
2013-08-06 02:10:00,68.0,62.7,29.45,SW,225,0.7,2.0,83,0.00,,,0.00,WUHU216HW,2013-08-06 07:10:00,
2013-08-06 02:20:00,68.0,62.7,29.45,SSE,158,0.0,1.6,83,0.00,,,0.00,WUHU216HW,2013-08-06 07:20:00,
2013-08-06 02:30:00,67.9,62.6,29.44,WSW,248,0.0,2.0,83,0.00,,,0.00,WUHU216HW,2013-08-06 07:30:00,
2013-08-06 02:40:00,67.7,62.6,29.44,South,180,0.0,1.1,84,0.00,,,0.00,WUHU216HW,2013-08-06 07:40:00,
2013-08-06 02:50:00,67.7,62.6,29.43,SE,135,0.0,0.7,84,0.00,,,0.00,WUHU216HW,2013-08-06 07:50:00,
2013-08-06 03:01:00,67.5,62.5,29.43,SE,135,0.0,0.2,84,0.00,,,0.00,WUHU216HW,2013-08-06 08:01:00,
2013-08-06 03:11:00,67.3,62.3,29.42,SE,135,0.0,0.0,84,0.00,,,0.00,WUHU216HW,2013-08-06 08:11:00,
2013-08-06 03:21:00,67.1,62.1,29.42,SE,135,0.0,0.7,84,0.00,,,0.00,WUHU216HW,2013-08-06 08:21:00,
2013-08-06 03:31:00,67.0,61.9,29.41,SSE,158,0.0,0.4,84,0.00,,,0.00,WUHU216HW,2013-08-06 08:31:00,
2013-08-06 03:41:00,67.0,61.9,29.41,SSW,203,0.0,1.1,84,0.00,,,0.00,WUHU216HW,2013-08-06 08:41:00,
2013-08-06 03:51:00,67.1,62.5,29.42,SSE,158,0.7,1.1,85,0.00,,,0.00,WUHU216HW,2013-08-06 08:51:00,
2013-08-06 04:01:00,67.3,63.0,29.41,SE,135,0.0,1.3,86,0.00,,,0.00,WUHU216HW,2013-08-06 09:01:00,
2013-08-06 04:11:00,67.3,62.6,29.41,SE,135,0.0,0.2,85,0.00,,,0.00,WUHU216HW,2013-08-06 09:11:00,
2013-08-06 04:21:00,67.3,63.0,29.41,South,180,0.9,1.1,86,0.00,,,0.00,WUHU216HW,2013-08-06 09:21:00,
2013-08-06 04:31:00,67.5,63.2,29.42,SSW,203,1.1,1.8,86,0.00,,,0.00,WUHU216HW,2013-08-06 09:31:00,
2013-08-06 04:41:00,67.7,63.4,29.42,WSW,248,0.4,2.0,86,0.00,,,0.00,WUHU216HW,2013-08-06 09:41:00,
2013-08-06 04:52:00,67.7,63.4,29.42,WSW,248,0.2,1.6,86,0.00,,,0.00,WUHU216HW,2013-08-06 09:52:00,
2013-08-06 05:02:00,67.9,63.6,29.43,SE,135,0.2,1.1,86,0.00,,,0.00,WUHU216HW,2013-08-06 10:02:00,
2013-08-06 05:12:00,68.0,63.7,29.43,SW,225,0.4,2.7,86,0.00,,,0.00,WUHU216HW,2013-08-06 10:12:00,
2013-08-06 05:22:00,68.0,63.7,29.42,SSW,203,0.4,1.3,86,0.00,,,0.00,WUHU216HW,2013-08-06 10:22:00,
2013-08-06 05:32:00,68.0,63.7,29.43,SSW,203,0.7,2.0,86,0.00,,,0.00,WUHU216HW,2013-08-06 10:32:00,
2013-08-06 05:42:00,68.0,63.7,29.43,South,180,0.2,3.4,86,0.00,,,0.00,WUHU216HW,2013-08-06 10:42:00,
2013-08-06 05:52:00,68.0,63.7,29.44,ESE,113,0.2,4.0,86,0.00,,,0.00,WUHU216HW,2013-08-06 10:52:00,
2013-08-06 06:02:00,68.2,64.2,29.44,SSE,158,1.1,2.9,87,0.00,,,0.00,WUHU216HW,2013-08-06 11:02:00,
2013-08-06 06:12:00,68.2,64.5,29.44,SW,225,1.1,3.4,88,0.00,,,0.00,WUHU216HW,2013-08-06 11:12:00,
2013-08-06 06:22:00,68.0,64.4,29.45,SSW,203,1.8,3.6,88,0.00,,,0.00,WUHU216HW,2013-08-06 11:22:00,
2013-08-06 06:32:00,68.0,64.4,29.45,WSW,248,2.0,3.6,88,0.00,,,0.00,WUHU216HW,2013-08-06 11:32:00,
2013-08-06 06:42:00,68.0,64.4,29.45,SSE,158,0.4,3.4,88,0.00,,,0.00,WUHU216HW,2013-08-06 11:42:00,
2013-08-06 06:53:00,68.2,64.5,29.46,WSW,248,2.5,2.9,88,0.00,,,0.00,WUHU216HW,2013-08-06 11:53:00,
2013-08-06 07:03:00,68.4,64.7,29.46,South,180,1.8,3.1,88,0.00,,,0.00,WUHU216HW,2013-08-06 12:03:00,
2013-08-06 07:13:00,68.4,64.7,29.46,SSW,203,2.5,5.1,88,0.00,,,0.00,WUHU216HW,2013-08-06 12:13:00,
2013-08-06 07:23:00,68.8,65.1,29.46,SSE,158,1.3,2.2,88,0.00,,,0.00,WUHU216HW,2013-08-06 12:23:00,
2013-08-06 07:33:00,68.8,65.1,29.46,South,180,0.9,1.8,88,0.00,,,0.00,WUHU216HW,2013-08-06 12:33:00,
2013-08-06 07:43:00,69.1,65.4,29.46,SW,225,2.9,3.6,88,0.00,,,0.00,WUHU216HW,2013-08-06 12:43:00,
2013-08-06 07:53:00,69.5,65.4,29.46,South,180,0.4,3.1,87,0.00,,,0.00,WUHU216HW,2013-08-06 12:53:00,
2013-08-06 08:03:00,69.7,65.6,29.46,South,180,2.5,2.5,87,0.00,,,0.00,WUHU216HW,2013-08-06 13:03:00,
2013-08-06 08:13:00,69.8,65.8,29.46,NNW,338,1.1,3.8,87,0.00,,,0.00,WUHU216HW,2013-08-06 13:13:00,
2013-08-06 08:23:00,70.0,65.6,29.46,SSE,158,1.1,3.1,86,0.00,,,0.00,WUHU216HW,2013-08-06 13:23:00,
2013-08-06 08:33:00,70.2,65.8,29.46,WSW,248,0.7,1.3,86,0.00,,,0.00,WUHU216HW,2013-08-06 13:33:00,
2013-08-06 08:43:00,70.4,66.0,29.46,South,180,0.9,1.8,86,0.00,,,0.00,WUHU216HW,2013-08-06 13:43:00,
2013-08-06 08:53:00,70.7,66.3,29.45,SW,225,1.3,1.8,86,0.00,,,0.00,WUHU216HW,2013-08-06 13:53:00,
2013-08-06 09:04:00,71.6,66.9,29.45,WSW,248,1.1,2.7,85,0.00,,,0.00,WUHU216HW,2013-08-06 14:04:00,
2013-08-06 09:14:00,71.8,66.7,29.46,SW,225,1.1,2.5,84,0.00,,,0.00,WUHU216HW,2013-08-06 14:14:00,
2013-08-06 09:25:00,72.2,67.1,29.46,SW,225,2.5,2.5,84,0.00,,,0.00,WUHU216HW,2013-08-06 14:25:00,
2013-08-06 09:30:00,72.4,67.2,29.46,SW,225,0.7,2.5,84,0.00,,,0.00,WUHU216HW,2013-08-06 14:30:00,
2013-08-06 09:35:00,72.5,67.4,29.46,SW,225,1.3,2.5,84,0.00,,,0.00,WUHU216HW,2013-08-06 14:35:00,
2013-08-06 09:40:00,72.9,67.8,29.47,SSE,158,1.8,2.5,84,0.00,,,0.00,WUHU216HW,2013-08-06 14:40:00,
2013-08-06 09:45:00,73.3,68.1,29.47,SW,225,3.4,3.4,84,0.00,,,0.00,WUHU216HW,2013-08-06 14:45:00,
2013-08-06 09:50:00,73.4,68.3,29.47,SSE,158,1.6,3.4,84,0.00,,,0.00,WUHU216HW,2013-08-06 14:50:00,
2013-08-06 09:55:00,74.0,68.5,29.47,SW,225,4.0,4.0,83,0.00,,,0.00,WUHU216HW,2013-08-06 14:55:00,
2013-08-06 10:00:00,74.5,69.4,29.47,SE,135,1.8,4.7,84,0.00,,,0.00,WUHU216HW,2013-08-06 15:00:00,
2013-08-06 10:05:00,75.2,69.5,29.47,SSW,203,1.8,4.7,82,0.00,,,0.00,WUHU216HW,2013-08-06 15:05:00,
2013-08-06 10:10:00,75.6,69.4,29.47,WSW,248,3.8,3.8,81,0.00,,,0.00,WUHU216HW,2013-08-06 15:10:00,
2013-08-06 10:15:00,76.0,69.8,29.47,SSE,158,4.0,4.0,81,0.00,,,0.00,WUHU216HW,2013-08-06 15:15:00,
2013-08-06 10:20:00,75.8,69.2,29.48,West,270,1.8,4.0,80,0.00,,,0.00,WUHU216HW,2013-08-06 15:20:00,
2013-08-06 10:25:00,75.4,69.0,29.47,SSW,203,1.3,3.4,80,0.00,,,0.00,WUHU216HW,2013-08-06 15:25:00,
2013-08-06 10:30:00,75.2,68.8,29.48,SSE,158,2.9,3.4,80,0.00,,,0.00,WUHU216HW,2013-08-06 15:30:00,
2013-08-06 10:35:00,75.4,69.0,29.48,SW,225,2.5,3.4,80,0.00,,,0.00,WUHU216HW,2013-08-06 15:35:00,
2013-08-06 10:41:00,75.1,68.6,29.47,WSW,248,2.2,2.7,80,0.00,,,0.00,WUHU216HW,2013-08-06 15:41:00,
2013-08-06 10:46:00,75.1,69.0,29.48,SE,135,4.5,4.5,81,0.00,,,0.00,WUHU216HW,2013-08-06 15:46:00,
2013-08-06 10:50:00,75.2,69.1,29.48,South,180,2.5,4.5,81,0.00,,,0.00,WUHU216HW,2013-08-06 15:50:00,
2013-08-06 10:55:00,75.6,69.1,29.47,SSW,203,1.1,2.9,80,0.00,,,0.00,WUHU216HW,2013-08-06 15:55:00,
2013-08-06 11:00:00,75.8,69.2,29.48,East,90,2.0,2.9,80,0.00,,,0.00,WUHU216HW,2013-08-06 16:00:00,
2013-08-06 11:05:00,75.8,69.2,29.48,SSE,158,1.1,2.7,80,0.00,,,0.00,WUHU216HW,2013-08-06 16:05:00,
2013-08-06 11:10:00,76.7,69.3,29.47,NNW,338,1.1,2.7,78,0.00,,,0.00,WUHU216HW,2013-08-06 16:10:00,
2013-08-06 11:15:00,79.6,71.3,29.47,NW,315,1.8,1.8,76,0.00,,,0.00,WUHU216HW,2013-08-06 16:15:00,
2013-08-06 11:21:00,80.6,71.2,29.47,SW,225,0.9,3.6,73,0.00,,,0.00,WUHU216HW,2013-08-06 16:21:00,
2013-08-06 11:25:00,80.6,71.7,29.47,SW,225,2.5,3.6,74,0.00,,,0.00,WUHU216HW,2013-08-06 16:25:00,
2013-08-06 11:31:00,81.5,70.8,29.46,SSW,203,2.0,2.5,70,0.00,,,0.00,WUHU216HW,2013-08-06 16:31:00,
2013-08-06 11:36:00,82.3,70.6,29.46,WNW,293,1.8,2.7,68,0.00,,,0.00,WUHU216HW,2013-08-06 16:36:00,
2013-08-06 11:45:00,83.2,71.9,29.46,SSW,203,1.1,2.5,69,0.00,,,0.00,WUHU216HW,2013-08-06 16:45:00,
2013-08-06 11:50:00,82.4,71.2,29.46,NW,315,0.9,1.6,69,0.00,,,0.00,WUHU216HW,2013-08-06 16:50:00,
2013-08-06 11:55:00,82.4,71.6,29.45,WSW,248,1.6,3.4,70,0.00,,,0.00,WUHU216HW,2013-08-06 16:55:00,
2013-08-06 12:00:00,83.5,71.8,29.45,SE,135,0.2,3.4,68,0.00,,,0.00,WUHU216HW,2013-08-06 17:00:00,
2013-08-06 12:05:00,83.5,72.3,29.45,SW,225,0.9,2.5,69,0.00,,,0.00,WUHU216HW,2013-08-06 17:05:00,
2013-08-06 12:10:00,83.2,71.9,29.45,SW,225,1.1,3.4,69,0.00,,,0.00,WUHU216HW,2013-08-06 17:10:00,
2013-08-06 12:15:00,85.0,72.8,29.45,SSE,158,2.2,3.4,67,0.00,,,0.00,WUHU216HW,2013-08-06 17:15:00,
2013-08-06 12:20:00,86.2,73.1,29.45,South,180,1.8,2.5,65,0.00,,,0.00,WUHU216HW,2013-08-06 17:20:00,
2013-08-06 12:25:00,84.6,71.6,29.45,WNW,293,2.5,2.5,65,0.00,,,0.00,WUHU216HW,2013-08-06 17:25:00,
2013-08-06 12:27:00,84.1,71.9,29.44,SSW,203,1.8,2.9,67,0.00,,,0.00,WUHU216HW,2013-08-06 17:27:00,
2013-08-06 12:32:00,84.1,72.4,29.44,NW,315,0.4,2.9,68,0.00,,,0.00,WUHU216HW,2013-08-06 17:32:00,
2013-08-06 12:37:00,85.7,72.1,29.44,WSW,248,0.9,1.8,64,0.00,,,0.00,WUHU216HW,2013-08-06 17:37:00,
2013-08-06 12:42:00,86.4,72.8,29.44,SE,135,1.8,1.8,64,0.00,,,0.00,WUHU216HW,2013-08-06 17:42:00,
2013-08-06 12:47:00,86.0,72.9,29.44,ESE,113,1.8,2.9,65,0.00,,,0.00,WUHU216HW,2013-08-06 17:47:00,
2013-08-06 12:52:00,85.3,72.2,29.43,ENE,68,0.9,2.9,65,0.00,,,0.00,WUHU216HW,2013-08-06 17:52:00,
2013-08-06 12:57:00,85.9,73.2,29.43,SSW,203,1.6,3.1,66,0.00,,,0.00,WUHU216HW,2013-08-06 17:57:00,
2013-08-06 13:02:00,87.5,72.9,29.43,West,270,0.4,3.1,62,0.00,,,0.00,WUHU216HW,2013-08-06 18:02:00,
2013-08-06 13:07:00,87.5,73.4,29.43,SW,225,0.9,3.4,63,0.00,,,0.00,WUHU216HW,2013-08-06 18:07:00,
2013-08-06 13:12:00,86.8,72.6,29.43,SSE,158,0.9,3.4,63,0.00,,,0.00,WUHU216HW,2013-08-06 18:12:00,
2013-08-06 13:17:00,86.4,72.8,29.43,West,270,2.7,2.7,64,0.00,,,0.00,WUHU216HW,2013-08-06 18:17:00,
2013-08-06 13:22:00,86.9,72.8,29.43,WSW,248,0.4,2.7,63,0.00,,,0.00,WUHU216HW,2013-08-06 18:22:00,
2013-08-06 13:27:00,88.2,74.5,29.43,NNW,338,0.9,1.8,64,0.00,,,0.00,WUHU216HW,2013-08-06 18:27:00,
2013-08-06 13:32:00,88.4,74.3,29.43,South,180,0.4,1.8,63,0.00,,,0.00,WUHU216HW,2013-08-06 18:32:00,
2013-08-06 13:37:00,88.2,73.6,29.43,NW,315,0.0,3.4,62,0.00,,,0.00,WUHU216HW,2013-08-06 18:37:00,
2013-08-06 13:42:00,88.4,72.8,29.43,WNW,293,2.2,3.4,60,0.00,,,0.00,WUHU216HW,2013-08-06 18:42:00,
2013-08-06 13:47:00,89.3,73.6,29.43,SSW,203,1.8,3.1,60,0.00,,,0.00,WUHU216HW,2013-08-06 18:47:00,
2013-08-06 13:52:00,89.1,74.0,29.43,NNW,338,1.3,3.4,61,0.00,,,0.00,WUHU216HW,2013-08-06 18:52:00,
2013-08-06 13:57:00,88.7,73.6,29.43,SW,225,2.5,3.4,61,0.00,,,0.00,WUHU216HW,2013-08-06 18:57:00,
2013-08-06 14:02:00,89.5,74.3,29.42,WSW,248,1.1,2.9,61,0.00,,,0.00,WUHU216HW,2013-08-06 19:02:00,
2013-08-06 14:07:00,89.8,72.6,29.42,West,270,1.8,2.9,57,0.00,,,0.00,WUHU216HW,2013-08-06 19:07:00,
2013-08-06 14:12:00,89.8,72.6,29.42,South,180,2.2,2.7,57,0.00,,,0.00,WUHU216HW,2013-08-06 19:12:00,
2013-08-06 14:17:00,90.0,74.4,29.42,SSE,158,2.7,2.7,60,0.00,,,0.00,WUHU216HW,2013-08-06 19:17:00,
2013-08-06 14:22:00,89.6,71.8,29.42,WNW,293,3.1,3.1,56,0.00,,,0.00,WUHU216HW,2013-08-06 19:22:00,
2013-08-06 14:27:00,89.6,73.4,29.42,SE,135,1.1,3.1,59,0.00,,,0.00,WUHU216HW,2013-08-06 19:27:00,
2013-08-06 14:32:00,91.1,72.5,29.41,NNE,23,1.3,3.1,55,0.00,,,0.00,WUHU216HW,2013-08-06 19:32:00,
2013-08-06 14:37:00,91.6,72.6,29.41,SSE,158,2.0,3.1,54,0.00,,,0.00,WUHU216HW,2013-08-06 19:37:00,
2013-08-06 14:42:00,91.8,72.7,29.41,ESE,113,1.8,2.9,54,0.00,,,0.00,WUHU216HW,2013-08-06 19:42:00,
2013-08-06 14:47:00,91.6,72.6,29.40,SSE,158,2.0,2.9,54,0.00,,,0.00,WUHU216HW,2013-08-06 19:47:00,
2013-08-06 14:52:00,91.3,73.3,29.40,ENE,68,1.8,2.5,56,0.00,,,0.00,WUHU216HW,2013-08-06 19:52:00,
2013-08-06 14:57:00,90.5,73.2,29.40,SSE,158,2.7,2.7,57,0.00,,,0.00,WUHU216HW,2013-08-06 19:57:00,
2013-08-06 15:02:00,90.2,72.8,29.40,SSE,158,1.8,2.7,57,0.00,,,0.00,WUHU216HW,2013-08-06 20:02:00,
2013-08-06 15:07:00,90.7,72.8,29.40,ESE,113,1.1,2.5,56,0.00,,,0.00,WUHU216HW,2013-08-06 20:07:00,
2013-08-06 15:12:00,90.4,71.9,29.40,SE,135,1.6,3.4,55,0.00,,,0.00,WUHU216HW,2013-08-06 20:12:00,
2013-08-06 15:17:00,90.4,71.9,29.40,SSW,203,3.6,3.6,55,0.00,,,0.00,WUHU216HW,2013-08-06 20:17:00,
2013-08-06 15:22:00,91.4,71.8,29.40,SW,225,1.6,3.6,53,0.00,,,0.00,WUHU216HW,2013-08-06 20:22:00,
2013-08-06 15:27:00,91.4,72.9,29.40,SSW,203,3.4,4.0,55,0.00,,,0.00,WUHU216HW,2013-08-06 20:27:00,
2013-08-06 15:32:00,90.9,72.5,29.39,ESE,113,1.6,4.0,55,0.00,,,0.00,WUHU216HW,2013-08-06 20:32:00,
2013-08-06 15:35:00,91.4,72.4,29.39,South,180,0.7,0.7,54,0.00,,,0.00,WUHU216HW,2013-08-06 20:35:00,
2013-08-06 15:37:00,91.4,72.4,29.39,South,180,0.7,4.0,54,0.00,,,0.00,WUHU216HW,2013-08-06 20:37:00,
2013-08-06 15:42:00,91.4,72.4,29.39,South,180,0.7,3.4,54,0.00,,,0.00,WUHU216HW,2013-08-06 20:42:00,
2013-08-06 16:00:00,91.6,72.6,29.40,SE,135,2.2,2.2,54,0.00,,,0.00,WUHU216HW,2013-08-06 21:00:00,
2013-08-06 16:05:00,92.7,73.0,29.40,SE,135,3.8,3.8,53,0.00,,,0.00,WUHU216HW,2013-08-06 21:05:00,
2013-08-06 16:10:00,92.5,72.8,29.40,SSE,158,2.2,3.8,53,0.00,,,0.00,WUHU216HW,2013-08-06 21:10:00,
2013-08-06 16:15:00,92.7,73.0,29.40,ENE,68,2.2,4.0,53,0.00,,,0.00,WUHU216HW,2013-08-06 21:15:00,
2013-08-06 16:20:00,92.2,73.1,29.40,South,180,1.6,4.0,54,0.00,,,0.00,WUHU216HW,2013-08-06 21:20:00,
2013-08-06 16:25:00,92.3,72.1,29.40,SW,225,1.8,4.5,52,0.00,,,0.00,WUHU216HW,2013-08-06 21:25:00,
2013-08-06 16:30:00,93.4,72.5,29.40,SE,135,3.6,4.5,51,0.00,,,0.00,WUHU216HW,2013-08-06 21:30:00,
2013-08-06 16:35:00,92.7,71.9,29.40,South,180,1.8,4.5,51,0.00,,,0.00,WUHU216HW,2013-08-06 21:35:00,
2013-08-06 16:40:00,91.6,71.5,29.40,SE,135,0.4,4.7,52,0.00,,,0.00,WUHU216HW,2013-08-06 21:40:00,
2013-08-06 16:45:00,91.6,72.6,29.40,NNW,338,0.9,4.7,54,0.00,,,0.00,WUHU216HW,2013-08-06 21:45:00,
2013-08-06 16:50:00,91.6,72.6,29.40,NNW,338,0.9,0.9,54,0.00,,,0.00,WUHU216HW,2013-08-06 21:50:00,
2013-08-06 17:00:00,90.7,72.3,29.40,East,90,2.0,2.0,55,0.00,,,0.00,WUHU216HW,2013-08-06 22:00:00,
2013-08-06 17:05:00,90.0,72.7,29.40,SSE,158,1.8,3.8,57,0.00,,,0.00,WUHU216HW,2013-08-06 22:05:00,
2013-08-06 17:10:00,90.0,73.3,29.40,SW,225,3.4,3.8,58,0.00,,,0.00,WUHU216HW,2013-08-06 22:10:00,
2013-08-06 17:15:00,89.5,73.3,29.40,SE,135,1.8,4.9,59,0.00,,,0.00,WUHU216HW,2013-08-06 22:15:00,
2013-08-06 17:20:00,90.2,73.4,29.40,SSW,203,4.0,7.4,58,0.00,,,0.00,WUHU216HW,2013-08-06 22:20:00,
2013-08-06 17:25:00,91.1,73.1,29.40,SE,135,1.1,7.4,56,0.00,,,0.00,WUHU216HW,2013-08-06 22:25:00,
2013-08-06 17:30:00,91.8,73.3,29.40,SSE,158,4.7,4.7,55,0.00,,,0.00,WUHU216HW,2013-08-06 22:30:00,
2013-08-06 17:35:00,91.6,72.6,29.40,SSW,203,1.3,4.7,54,0.00,,,0.00,WUHU216HW,2013-08-06 22:35:00,
2013-08-06 17:40:00,91.1,72.5,29.40,SSE,158,1.6,4.0,55,0.00,,,0.00,WUHU216HW,2013-08-06 22:40:00,
2013-08-06 17:45:00,91.1,73.1,29.40,SSW,203,2.0,3.6,56,0.00,,,0.00,WUHU216HW,2013-08-06 22:45:00,
2013-08-06 17:50:00,90.9,72.5,29.40,South,180,2.7,3.4,55,0.00,,,0.00,WUHU216HW,2013-08-06 22:50:00,
2013-08-06 17:55:00,90.4,72.5,29.40,WSW,248,3.4,3.4,56,0.00,,,0.00,WUHU216HW,2013-08-06 22:55:00,
2013-08-06 18:00:00,89.3,72.5,29.41,SSW,203,1.3,3.4,58,0.00,,,0.00,WUHU216HW,2013-08-06 23:00:00,
2013-08-06 18:05:00,89.6,72.9,29.40,SSE,158,2.5,4.0,58,0.00,,,0.00,WUHU216HW,2013-08-06 23:05:00,
2013-08-06 18:10:00,89.8,73.1,29.40,SSE,158,1.8,4.0,58,0.00,,,0.00,WUHU216HW,2013-08-06 23:10:00,
2013-08-06 18:15:00,89.3,72.5,29.40,SSW,203,2.2,3.6,58,0.00,,,0.00,WUHU216HW,2013-08-06 23:15:00,
2013-08-06 18:20:00,89.3,72.5,29.40,ESE,113,2.0,4.5,58,0.00,,,0.00,WUHU216HW,2013-08-06 23:20:00,
2013-08-06 18:25:00,88.6,71.9,29.40,ESE,113,4.7,4.7,58,0.00,,,0.00,WUHU216HW,2013-08-06 23:25:00,
2013-08-06 18:30:00,87.1,71.6,29.40,SSW,203,1.8,4.7,60,0.00,,,0.00,WUHU216HW,2013-08-06 23:30:00,
2013-08-06 18:35:00,87.1,72.5,29.40,SSE,158,4.0,4.0,62,0.00,,,0.00,WUHU216HW,2013-08-06 23:35:00,
2013-08-06 18:40:00,87.8,72.4,29.40,South,180,3.6,4.0,60,0.00,,,0.00,WUHU216HW,2013-08-06 23:40:00,
2013-08-06 18:45:00,88.0,72.6,29.41,South,180,2.2,3.6,60,0.00,,,0.00,WUHU216HW,2013-08-06 23:45:00,
2013-08-06 18:50:00,87.1,72.1,29.41,SE,135,1.3,2.2,61,0.00,,,0.00,WUHU216HW,2013-08-06 23:50:00,
2013-08-06 18:55:00,86.6,72.5,29.41,SE,135,0.0,2.5,63,0.00,,,0.00,WUHU216HW,2013-08-06 23:55:00,
2013-08-06 19:00:00,87.5,72.9,29.41,ESE,113,0.9,3.8,62,0.00,,,0.00,WUHU216HW,2013-08-07 00:00:00,
2013-08-06 19:05:00,87.5,72.5,29.40,SE,135,1.8,3.8,61,0.00,,,0.00,WUHU216HW,2013-08-07 00:05:00,
2013-08-06 19:10:00,86.8,72.2,29.41,SE,135,0.7,1.8,62,0.00,,,0.00,WUHU216HW,2013-08-07 00:10:00,
2013-08-06 19:15:00,85.9,72.3,29.40,ESE,113,1.6,1.8,64,0.00,,,0.00,WUHU216HW,2013-08-07 00:15:00,
2013-08-06 19:20:00,85.7,72.1,29.40,SE,135,3.1,3.1,64,0.00,,,0.00,WUHU216HW,2013-08-07 00:20:00,
2013-08-06 19:25:00,85.9,72.7,29.40,SE,135,1.1,3.1,65,0.00,,,0.00,WUHU216HW,2013-08-07 00:25:00,
2013-08-06 19:30:00,85.7,72.1,29.40,South,180,1.8,2.2,64,0.00,,,0.00,WUHU216HW,2013-08-07 00:30:00,
2013-08-06 19:35:00,84.6,72.0,29.40,SE,135,0.9,1.8,66,0.00,,,0.00,WUHU216HW,2013-08-07 00:35:00,
2013-08-06 19:40:00,83.3,71.6,29.40,SE,135,1.8,1.8,68,0.00,,,0.00,WUHU216HW,2013-08-07 00:40:00,
2013-08-06 19:45:00,83.5,72.3,29.40,SSE,158,1.6,1.8,69,0.00,,,0.00,WUHU216HW,2013-08-07 00:45:00,
2013-08-06 19:50:00,83.7,72.0,29.39,South,180,2.0,2.0,68,0.00,,,0.00,WUHU216HW,2013-08-07 00:50:00,
2013-08-06 19:55:00,82.6,71.4,29.40,SSE,158,1.1,2.0,69,0.00,,,0.00,WUHU216HW,2013-08-07 00:55:00,
2013-08-06 20:00:00,81.7,70.6,29.40,SSE,158,2.7,2.7,69,0.00,,,0.00,WUHU216HW,2013-08-07 01:00:00,
2013-08-06 20:05:00,81.7,71.4,29.40,SE,135,1.3,2.7,71,0.00,,,0.00,WUHU216HW,2013-08-07 01:05:00,
2013-08-06 20:10:00,82.3,71.5,29.40,SE,135,0.7,1.8,70,0.00,,,0.00,WUHU216HW,2013-08-07 01:10:00,
2013-08-06 20:15:00,82.1,70.8,29.40,SE,135,0.9,1.8,69,0.00,,,0.00,WUHU216HW,2013-08-07 01:15:00,
2013-08-06 20:20:00,81.4,70.7,29.40,ESE,113,1.6,1.6,70,0.00,,,0.00,WUHU216HW,2013-08-07 01:20:00,
2013-08-06 20:25:00,80.8,71.4,29.40,SE,135,0.0,1.6,73,0.00,,,0.00,WUHU216HW,2013-08-07 01:25:00,
2013-08-06 20:30:00,81.4,71.5,29.41,East,90,0.0,0.4,72,0.00,,,0.00,WUHU216HW,2013-08-07 01:30:00,
2013-08-06 20:35:00,81.9,71.6,29.41,East,90,0.0,0.4,71,0.00,,,0.00,WUHU216HW,2013-08-07 01:35:00,
2013-08-06 20:40:00,81.7,71.0,29.41,SE,135,0.7,0.7,70,0.00,,,0.00,WUHU216HW,2013-08-07 01:40:00,
2013-08-06 20:45:00,81.0,70.4,29.41,SE,135,0.0,0.7,70,0.00,,,0.00,WUHU216HW,2013-08-07 01:45:00,
2013-08-06 20:50:00,81.5,71.3,29.41,SE,135,1.1,1.1,71,0.00,,,0.00,WUHU216HW,2013-08-07 01:50:00,
2013-08-06 20:55:00,82.1,71.3,29.42,SE,135,0.7,1.1,70,0.00,,,0.00,WUHU216HW,2013-08-07 01:55:00,
2013-08-06 21:00:00,81.5,70.8,29.41,SSE,158,1.1,1.8,70,0.00,,,0.00,WUHU216HW,2013-08-07 02:00:00,
2013-08-06 21:05:00,80.5,70.2,29.41,SE,135,0.7,1.8,71,0.00,,,0.00,WUHU216HW,2013-08-07 02:05:00,
2013-08-06 21:10:00,79.6,69.8,29.42,ESE,113,1.1,1.8,72,0.00,,,0.00,WUHU216HW,2013-08-07 02:10:00,
2013-08-06 21:15:00,79.0,70.0,29.42,SE,135,0.4,1.8,74,0.00,,,0.00,WUHU216HW,2013-08-07 02:15:00,
2013-08-06 21:20:00,79.9,70.9,29.43,SE,135,1.1,1.8,74,0.00,,,0.00,WUHU216HW,2013-08-07 02:20:00,
2013-08-06 21:25:00,80.1,70.3,29.42,ENE,68,0.2,1.1,72,0.00,,,0.00,WUHU216HW,2013-08-07 02:25:00,
2013-08-06 21:30:00,79.6,69.8,29.43,South,180,1.1,1.1,72,0.00,,,0.00,WUHU216HW,2013-08-07 02:30:00,
2013-08-06 21:35:00,79.0,69.6,29.43,SE,135,0.0,1.1,73,0.00,,,0.00,WUHU216HW,2013-08-07 02:35:00,
2013-08-06 21:40:00,78.5,70.3,29.43,SE,135,0.0,1.1,76,0.00,,,0.00,WUHU216HW,2013-08-07 02:40:00,
2013-08-06 21:45:00,80.8,71.4,29.44,South,180,0.0,0.0,73,0.00,,,0.00,WUHU216HW,2013-08-07 02:45:00,
2013-08-06 21:50:00,81.7,71.4,29.44,SSW,203,0.9,0.9,71,0.00,,,0.00,WUHU216HW,2013-08-07 02:50:00,
2013-08-06 21:55:00,81.2,70.9,29.44,SE,135,1.6,1.6,71,0.00,,,0.00,WUHU216HW,2013-08-07 02:55:00,
2013-08-06 22:00:00,79.9,70.1,29.43,SE,135,1.1,1.6,72,0.00,,,0.00,WUHU216HW,2013-08-07 03:00:00,
2013-08-06 22:05:00,79.0,70.0,29.43,SE,135,1.3,1.8,74,0.00,,,0.00,WUHU216HW,2013-08-07 03:05:00,
2013-08-06 22:10:00,78.3,69.7,29.43,ESE,113,0.2,1.8,75,0.00,,,0.00,WUHU216HW,2013-08-07 03:10:00,
2013-08-06 22:15:00,78.1,70.3,29.43,SE,135,1.6,1.6,77,0.00,,,0.00,WUHU216HW,2013-08-07 03:15:00,
2013-08-06 22:20:00,78.8,71.4,29.43,SE,135,1.3,1.8,78,0.00,,,0.00,WUHU216HW,2013-08-07 03:20:00,
2013-08-06 22:25:00,79.2,70.6,29.43,SE,135,1.1,1.8,75,0.00,,,0.00,WUHU216HW,2013-08-07 03:25:00,
2013-08-06 22:30:00,78.7,70.0,29.42,SE,135,1.8,1.8,75,0.00,,,0.00,WUHU216HW,2013-08-07 03:30:00,
2013-08-06 22:35:00,77.9,69.8,29.42,SE,135,1.8,1.8,76,0.00,,,0.00,WUHU216HW,2013-08-07 03:35:00,
2013-08-06 22:40:00,77.4,70.0,29.42,SE,135,1.8,1.8,78,0.00,,,0.00,WUHU216HW,2013-08-07 03:40:00,
2013-08-06 22:45:00,76.9,69.5,29.42,SSE,158,1.1,1.8,78,0.00,,,0.00,WUHU216HW,2013-08-07 03:45:00,
2013-08-06 22:50:00,77.4,70.7,29.43,SE,135,0.0,2.0,80,0.00,,,0.00,WUHU216HW,2013-08-07 03:50:00,
2013-08-06 22:55:00,79.4,71.6,29.43,SE,135,0.0,2.0,77,0.00,,,0.00,WUHU216HW,2013-08-07 03:55:00,
2013-08-06 23:00:00,79.2,70.6,29.43,SE,135,0.4,1.1,75,0.00,,,0.00,WUHU216HW,2013-08-07 04:00:00,
2013-08-06 23:01:00,79.2,70.6,29.43,SE,135,0.4,1.1,75,0.00,,,0.00,WUHU216HW,2013-08-07 04:01:00,
2013-08-06 23:06:00,78.3,69.7,29.43,SSE,158,0.0,1.1,75,0.00,,,0.00,WUHU216HW,2013-08-07 04:06:00,
2013-08-06 23:11:00,77.8,69.6,29.43,SE,135,0.9,0.9,76,0.00,,,0.00,WUHU216HW,2013-08-07 04:11:00,
2013-08-06 23:16:00,77.0,69.7,29.42,SE,135,1.1,1.6,78,0.00,,,0.00,WUHU216HW,2013-08-07 04:16:00,
2013-08-06 23:21:00,76.5,69.5,29.43,ESE,113,1.1,1.6,79,0.00,,,0.00,WUHU216HW,2013-08-07 04:21:00,
2013-08-06 23:26:00,76.1,69.6,29.42,SE,135,1.6,1.6,80,0.00,,,0.00,WUHU216HW,2013-08-07 04:26:00,
2013-08-06 23:31:00,76.0,69.4,29.42,SE,135,0.9,1.6,80,0.00,,,0.00,WUHU216HW,2013-08-07 04:31:00,
2013-08-06 23:36:00,76.0,70.5,29.42,SE,135,0.0,1.1,83,0.00,,,0.00,WUHU216HW,2013-08-07 04:36:00,
2013-08-06 23:41:00,78.3,70.8,29.42,SE,135,0.4,1.1,78,0.00,,,0.00,WUHU216HW,2013-08-07 04:41:00,
2013-08-06 23:46:00,78.8,71.0,29.42,SE,135,1.6,1.6,77,0.00,,,0.00,WUHU216HW,2013-08-07 04:46:00,
2013-08-06 23:51:00,77.9,70.1,29.42,SE,135,1.3,1.6,77,0.00,,,0.00,WUHU216HW,2013-08-07 04:51:00,
2013-08-06 23:56:00,76.9,69.5,29.42,SSE,158,1.8,1.8,78,0.00,,,0.00,WUHU216HW,2013-08-07 04:56:00,